Time;durP1;ratioP1;P1;durP2;ratioP2;P2;SDS_P1;SDS_P2;PMS_P1;PMS_P2;Temp;Humidity;BMP_temperature;BMP_pressure;BME280_temperature;BME280_humidity;BME280_pressure;Samples;Min_cycle;Max_cycle;Signal;HPM_P1;HPM_P2
2023/05/16 00:01:02;;;;;;;4.00;0.70;;;;;15.90;101756.00;;;;5087186;28;20194;-77
2023/05/16 00:03:30;;;;;;;5.78;0.93;;;;;15.90;101757.00;;;;5086440;28;20198;-77
2023/05/16 00:06:01;;;;;;;5.78;1.05;;;;;15.90;101756.00;;;;5085719;28;20221;-77
2023/05/16 00:08:28;;;;;;;3.05;1.02;;;;;15.80;101756.00;;;;5084989;28;20205;-77
2023/05/16 00:10:55;;;;;;;6.45;0.80;;;;;15.80;101764.00;;;;5088126;28;20303;-78
2023/05/16 00:13:25;;;;;;;6.03;1.05;;;;;15.70;101760.00;;;;5084365;28;20201;-78
2023/05/16 00:15:53;;;;;;;4.03;0.70;;;;;15.70;101766.00;;;;5085264;28;20613;-78
2023/05/16 00:18:22;;;;;;;8.23;1.63;;;;;15.70;101765.00;;;;5085385;28;20630;-78
2023/05/16 00:20:50;;;;;;;4.80;0.95;;;;;15.60;101766.00;;;;5086299;28;20288;-78
2023/05/16 00:23:19;;;;;;;6.72;0.75;;;;;15.60;101761.00;;;;5092442;28;20551;-78
2023/05/16 00:25:46;;;;;;;4.38;1.00;;;;;15.60;101759.00;;;;5092012;28;20202;-78
2023/05/16 00:28:15;;;;;;;4.70;1.05;;;;;15.50;101765.00;;;;5090890;28;20255;-78
2023/05/16 00:30:42;;;;;;;6.90;1.40;;;;;15.50;101763.00;;;;5090429;28;20229;-78
2023/05/16 00:33:09;;;;;;;4.68;1.13;;;;;15.50;101768.00;;;;5091596;28;20198;-78
2023/05/16 00:35:36;;;;;;;5.95;0.50;;;;;15.50;101757.00;;;;5091810;28;20194;-77
2023/05/16 00:38:06;;;;;;;3.72;0.60;;;;;15.40;101759.00;;;;5091653;28;20198;-78
2023/05/16 00:40:34;;;;;;;7.22;1.00;;;;;15.40;101755.00;;;;5091981;28;20226;-78
2023/05/16 00:43:02;;;;;;;5.10;0.80;;;;;15.40;101758.00;;;;5088697;28;20198;-78
2023/05/16 00:45:29;;;;;;;3.88;1.02;;;;;15.40;101762.00;;;;5089504;28;20290;-77
2023/05/16 00:47:56;;;;;;;8.38;1.02;;;;;15.40;101762.00;;;;5086128;28;20589;-76
2023/05/16 00:50:24;;;;;;;3.88;0.77;;;;;15.30;101759.00;;;;5083977;28;20226;-78
2023/05/16 00:52:51;;;;;;;6.53;1.00;;;;;15.30;101762.00;;;;5091431;28;20209;-78
2023/05/16 00:55:18;;;;;;;8.65;1.65;;;;;15.20;101756.00;;;;5091166;28;20228;-77
2023/05/16 00:57:47;;;;;;;4.18;0.88;;;;;15.20;101763.00;;;;5086447;28;20202;-77
2023/05/16 01:00:15;;;;;;;4.43;0.88;;;;;15.20;101767.00;;;;5090685;28;20203;-78
2023/05/16 01:02:43;;;;;;;9.07;1.20;;;;;15.20;101772.00;;;;5088867;28;20198;-77
2023/05/16 01:05:10;;;;;;;3.88;0.70;;;;;15.10;101771.00;;;;5089615;28;20206;-77
2023/05/16 01:07:38;;;;;;;5.53;1.00;;;;;15.10;101755.00;;;;5088559;28;20194;-78
2023/05/16 01:10:07;;;;;;;2.60;0.65;;;;;15.10;101763.00;;;;5088384;28;20233;-78
2023/05/16 01:12:41;;;;;;;5.35;1.05;;;;;15.00;101768.00;;;;5088377;28;20198;-78
2023/05/16 01:15:13;;;;;;;5.93;1.10;;;;;15.00;101755.00;;;;5087581;28;20189;-76
2023/05/16 01:17:51;;;;;;;3.83;0.82;;;;;14.90;101767.00;;;;5090558;28;20201;-77
2023/05/16 01:20:30;;;;;;;4.47;0.75;;;;;14.90;101772.00;;;;5085771;28;20552;-78
2023/05/16 01:23:17;;;;;;;4.47;0.80;;;;;14.80;101764.00;;;;5088430;28;20646;-78
2023/05/16 01:25:57;;;;;;;2.60;0.85;;;;;14.80;101768.00;;;;5073097;28;20202;-78
2023/05/16 01:28:27;;;;;;;4.78;1.20;;;;;14.90;101769.00;;;;5087172;28;20203;-78
2023/05/16 01:30:54;;;;;;;6.68;1.20;;;;;14.90;101769.00;;;;5086337;28;20323;-78
2023/05/16 01:33:21;;;;;;;2.65;0.50;;;;;14.90;101772.00;;;;5088510;28;20198;-77
2023/05/16 01:35:58;;;;;;;6.38;1.52;;;;;14.80;101770.00;;;;5087644;28;20209;-77
2023/05/16 01:38:27;;;;;;;4.60;0.90;;;;;14.80;101765.00;;;;5088057;28;20195;-77
2023/05/16 01:40:59;;;;;;;3.88;0.63;;;;;14.70;101773.00;;;;5089320;28;20599;-78
2023/05/16 01:43:34;;;;;;;2.80;0.50;;;;;14.70;101764.00;;;;5089301;28;20191;-78
2023/05/16 01:46:09;;;;;;;4.50;0.90;;;;;14.70;101772.00;;;;5090000;28;20247;-77
2023/05/16 01:48:44;;;;;;;5.22;1.00;;;;;14.70;101778.00;;;;5087235;28;20656;-78
2023/05/16 01:51:12;;;;;;;3.97;0.73;;;;;14.70;101768.00;;;;5079162;28;20590;-78
2023/05/16 01:53:41;;;;;;;7.47;0.70;;;;;14.70;101770.00;;;;5089553;28;20205;-77
2023/05/16 01:56:14;;;;;;;4.20;0.60;;;;;14.60;101779.00;;;;5074367;28;20226;-77
2023/05/16 01:58:45;;;;;;;6.43;1.48;;;;;14.60;101782.00;;;;5088009;28;20197;-77
2023/05/16 02:01:14;;;;;;;1.85;0.80;;;;;14.60;101778.00;;;;5087887;28;20297;-77
2023/05/16 02:03:41;;;;;;;4.57;0.80;;;;;14.60;101784.00;;;;5088680;28;20209;-77
2023/05/16 02:06:08;;;;;;;2.75;1.05;;;;;14.60;101783.00;;;;5088931;28;20208;-78
2023/05/16 02:08:36;;;;;;;4.50;0.70;;;;;14.60;101782.00;;;;5088264;28;20656;-77
2023/05/16 02:11:03;;;;;;;5.63;0.98;;;;;14.50;101784.00;;;;5084618;28;20230;-77
2023/05/16 02:13:30;;;;;;;4.05;0.88;;;;;14.50;101794.00;;;;5075303;28;20195;-77
2023/05/16 02:15:59;;;;;;;2.97;0.75;;;;;14.50;101795.00;;;;5072013;28;20198;-77
2023/05/16 02:18:27;;;;;;;2.40;0.85;;;;;14.50;101796.00;;;;5088302;28;20865;-78
2023/05/16 02:20:54;;;;;;;4.65;0.80;;;;;14.50;101801.00;;;;5083256;28;20641;-77
2023/05/16 02:23:21;;;;;;;5.47;0.73;;;;;14.50;101795.00;;;;5078866;28;20604;-77
2023/05/16 02:25:49;;;;;;;1.80;0.63;;;;;14.40;101793.00;;;;5087151;28;20291;-77
2023/05/16 02:28:16;;;;;;;3.97;1.00;;;;;14.40;101796.00;;;;5074747;28;20666;-77
2023/05/16 02:30:43;;;;;;;4.72;0.88;;;;;14.40;101804.00;;;;5086589;28;20536;-78
2023/05/16 02:33:12;;;;;;;2.70;0.50;;;;;14.40;101803.00;;;;5085823;28;20205;-78
2023/05/16 02:35:39;;;;;;;4.65;0.73;;;;;14.40;101802.00;;;;5089622;28;20228;-78
2023/05/16 02:38:07;;;;;;;5.38;0.77;;;;;14.40;101797.00;;;;5087890;28;20202;-78
2023/05/16 02:40:34;;;;;;;2.67;0.90;;;;;14.40;101807.00;;;;5085000;28;20218;-75
2023/05/16 02:43:01;;;;;;;8.02;1.77;;;;;14.40;101807.00;;;;5087134;28;20206;-76
2023/05/16 02:45:28;;;;;;;5.20;1.13;;;;;14.40;101813.00;;;;5081591;28;20197;-76
2023/05/16 02:47:56;;;;;;;6.30;1.20;;;;;14.40;101813.00;;;;5087857;28;20195;-76
2023/05/16 02:50:24;;;;;;;3.60;0.70;;;;;14.30;101805.00;;;;5084243;28;20218;-77
2023/05/16 02:52:52;;;;;;;5.63;0.80;;;;;14.30;101813.00;;;;5086579;28;20205;-78
2023/05/16 02:55:19;;;;;;;5.97;1.05;;;;;14.30;101813.00;;;;5086406;28;20198;-77
2023/05/16 02:57:46;;;;;;;8.68;0.93;;;;;14.30;101816.00;;;;5087280;28;20206;-77
2023/05/16 03:00:15;;;;;;;4.78;0.50;;;;;14.30;101814.00;;;;5086948;28;20198;-77
2023/05/16 03:02:42;;;;;;;3.38;0.57;;;;;14.30;101819.00;;;;5089131;28;20202;-77
2023/05/16 03:05:10;;;;;;;2.97;0.68;;;;;14.30;101823.00;;;;5088055;28;20260;-77
2023/05/16 03:07:39;;;;;;;5.95;0.73;;;;;14.30;101823.00;;;;5086261;28;20202;-77
2023/05/16 03:10:07;;;;;;;4.18;0.73;;;;;14.30;101824.00;;;;5085635;28;20695;-78
2023/05/16 03:12:34;;;;;;;4.07;0.90;;;;;14.30;101826.00;;;;5087599;28;20205;-77
2023/05/16 03:15:02;;;;;;;5.88;1.10;;;;;14.20;101829.00;;;;5079871;28;20199;-77
2023/05/16 03:17:30;;;;;;;3.67;0.50;;;;;14.20;101829.00;;;;5085177;28;20208;-77
2023/05/16 03:19:57;;;;;;;7.63;0.90;;;;;14.20;101823.00;;;;5086840;28;20743;-77
2023/05/16 03:22:24;;;;;;;3.88;0.73;;;;;14.20;101827.00;;;;5087304;28;20223;-77
2023/05/16 03:24:53;;;;;;;4.97;0.80;;;;;14.20;101830.00;;;;5087944;28;20198;-77
2023/05/16 03:27:22;;;;;;;4.32;1.15;;;;;14.20;101832.00;;;;5083099;28;20187;-77
2023/05/16 03:29:50;;;;;;;6.13;0.90;;;;;14.20;101837.00;;;;5079452;28;20193;-77
2023/05/16 03:32:17;;;;;;;5.00;0.68;;;;;14.20;101835.00;;;;5075521;28;20292;-77
2023/05/16 03:34:45;;;;;;;5.90;0.65;;;;;14.20;101832.00;;;;5087088;28;20194;-77
2023/05/16 03:37:13;;;;;;;2.85;0.52;;;;;14.20;101833.00;;;;5085597;28;20198;-78
2023/05/16 03:39:41;;;;;;;6.07;1.10;;;;;14.10;101838.00;;;;5087416;28;20202;-77
2023/05/16 03:42:09;;;;;;;1.92;0.90;;;;;14.10;101837.00;;;;5087307;28;20186;-77
2023/05/16 03:44:37;;;;;;;3.55;0.90;;;;;14.10;101836.00;;;;5087983;28;20206;-77
2023/05/16 03:47:05;;;;;;;4.72;0.80;;;;;14.10;101840.00;;;;5084603;28;20202;-78
2023/05/16 03:49:32;;;;;;;7.00;0.98;;;;;14.10;101848.00;;;;5083095;28;20281;-77
2023/05/16 03:51:59;;;;;;;5.10;1.13;;;;;14.10;101841.00;;;;5086695;28;20222;-77
2023/05/16 03:54:27;;;;;;;6.22;1.33;;;;;14.10;101839.00;;;;5086699;28;20202;-77
2023/05/16 03:56:54;;;;;;;6.55;1.40;;;;;14.10;101844.00;;;;5087099;28;20193;-77
2023/05/16 03:59:23;;;;;;;4.00;0.60;;;;;14.10;101847.00;;;;5084699;28;20198;-77
2023/05/16 04:01:50;;;;;;;4.18;0.70;;;;;14.10;101853.00;;;;5086596;28;20202;-77
2023/05/16 04:04:17;;;;;;;1.45;0.60;;;;;14.10;101848.00;;;;5086176;28;20195;-77
2023/05/16 04:06:45;;;;;;;3.30;0.85;;;;;14.10;101848.00;;;;5086339;28;20205;-78
2023/05/16 04:09:12;;;;;;;3.75;0.85;;;;;14.10;101853.00;;;;5084649;28;20201;-78
2023/05/16 04:11:39;;;;;;;3.22;1.23;;;;;14.10;101861.00;;;;5080641;28;20225;-78
2023/05/16 04:14:07;;;;;;;6.13;0.70;;;;;14.00;101863.00;;;;5084237;28;20199;-78
2023/05/16 04:16:35;;;;;;;4.20;1.00;;;;;14.00;101862.00;;;;5079872;28;20213;-77
2023/05/16 04:19:03;;;;;;;5.32;0.70;;;;;14.10;101860.00;;;;5085252;28;20198;-78
2023/05/16 04:21:30;;;;;;;2.38;0.57;;;;;14.10;101863.00;;;;5086928;28;20198;-78
2023/05/16 04:23:58;;;;;;;4.45;0.65;;;;;14.10;101863.00;;;;5088745;28;20217;-78
2023/05/16 04:26:26;;;;;;;2.40;1.05;;;;;14.10;101875.00;;;;5084104;28;20198;-78
2023/05/16 04:28:53;;;;;;;3.08;0.80;;;;;14.10;101873.00;;;;5085175;28;20280;-78
2023/05/16 04:31:21;;;;;;;5.57;1.30;;;;;14.10;101875.00;;;;5082118;28;20241;-78
2023/05/16 04:33:51;;;;;;;3.63;0.90;;;;;14.10;101876.00;;;;5085291;28;20206;-78
2023/05/16 04:36:18;;;;;;;3.25;0.85;;;;;14.10;101884.00;;;;5081283;28;20229;-78
2023/05/16 04:38:46;;;;;;;4.72;1.05;;;;;14.10;101879.00;;;;5084056;28;20191;-78
2023/05/16 04:41:13;;;;;;;4.22;1.02;;;;;14.20;101887.00;;;;5086453;28;20210;-78
2023/05/16 04:43:41;;;;;;;6.63;0.85;;;;;14.10;101889.00;;;;5083005;28;20199;-78
2023/05/16 04:46:08;;;;;;;2.08;0.63;;;;;14.20;101893.00;;;;5085851;28;20885;-78
2023/05/16 04:48:36;;;;;;;6.32;1.05;;;;;14.20;101887.00;;;;5082439;28;20685;-78
2023/05/16 04:51:05;;;;;;;5.97;0.80;;;;;14.20;101891.00;;;;5085499;28;20218;-78
2023/05/16 04:53:32;;;;;;;3.05;0.88;;;;;14.30;101893.00;;;;5085961;28;20281;-78
2023/05/16 04:55:59;;;;;;;4.28;1.02;;;;;14.30;101896.00;;;;5083002;28;20218;-78
2023/05/16 04:58:27;;;;;;;2.95;0.70;;;;;14.30;101898.00;;;;5088338;28;20194;-79
2023/05/16 05:00:55;;;;;;;4.93;0.80;;;;;14.40;101901.00;;;;5092527;28;20199;-78
2023/05/16 05:03:22;;;;;;;7.43;0.98;;;;;14.40;101897.00;;;;5085742;28;20244;-78
2023/05/16 05:05:50;;;;;;;2.53;0.70;;;;;14.40;101898.00;;;;5085946;28;20206;-78
2023/05/16 05:08:19;;;;;;;3.67;1.13;;;;;14.50;101900.00;;;;5087033;28;20198;-78
2023/05/16 05:10:46;;;;;;;7.03;1.02;;;;;14.60;101893.00;;;;5088509;28;20222;-79
2023/05/16 05:13:13;;;;;;;3.55;0.80;;;;;14.60;101901.00;;;;5091663;28;20202;-77
2023/05/16 05:15:40;;;;;;;2.17;0.52;;;;;14.70;101895.00;;;;5089191;28;20198;-78
2023/05/16 05:18:08;;;;;;;4.25;1.00;;;;;14.70;101896.00;;;;5088270;28;20191;-77
2023/05/16 05:20:35;;;;;;;3.50;0.93;;;;;14.80;101904.00;;;;5086364;28;20203;-78
2023/05/16 05:23:02;;;;;;;6.07;0.73;;;;;14.80;101905.00;;;;5087742;28;20197;-78
2023/05/16 05:25:32;;;;;;;2.42;0.70;;;;;14.90;101904.00;;;;5089322;28;20210;-78
2023/05/16 05:27:59;;;;;;;6.60;1.02;;;;;15.00;101910.00;;;;5088756;28;20198;-78
2023/05/16 05:30:27;;;;;;;4.18;1.20;;;;;15.00;101912.00;;;;5085823;28;20729;-78
2023/05/16 05:32:55;;;;;;;3.88;0.80;;;;;15.10;101918.00;;;;5089176;28;20210;-79
2023/05/16 05:35:22;;;;;;;5.63;1.25;;;;;15.20;101916.00;;;;5088431;28;20206;-78
2023/05/16 05:37:49;;;;;;;4.25;1.13;;;;;15.20;101913.00;;;;5088199;28;20506;-78
2023/05/16 05:40:17;;;;;;;5.82;0.75;;;;;15.30;101919.00;;;;5087193;28;20728;-77
2023/05/16 05:42:45;;;;;;;4.88;0.82;;;;;15.40;101924.00;;;;5087055;28;20202;-78
2023/05/16 05:45:12;;;;;;;1.63;0.68;;;;;15.40;101910.00;;;;5093161;28;20194;-78
2023/05/16 05:47:40;;;;;;;4.32;0.82;;;;;15.50;101920.00;;;;5087827;28;20206;-77
2023/05/16 05:50:10;;;;;;;1.83;0.60;;;;;15.60;101917.00;;;;5069671;28;20203;-79
2023/05/16 05:52:37;;;;;;;2.75;0.80;;;;;15.60;101921.00;;;;5086914;28;20218;-79
2023/05/16 05:55:05;;;;;;;8.68;1.13;;;;;15.70;101921.00;;;;5068865;28;20813;-81
2023/05/16 05:57:33;;;;;;;4.80;0.90;;;;;15.70;101929.00;;;;5077634;28;20575;-81
2023/05/16 06:00:01;;;;;;;3.83;0.82;;;;;15.80;101931.00;;;;5089808;28;20198;-80
2023/05/16 06:02:29;;;;;;;3.80;0.50;;;;;15.80;101933.00;;;;5089674;28;20198;-79
2023/05/16 06:04:56;;;;;;;3.22;0.80;;;;;15.90;101931.00;;;;5090278;28;20301;-79
2023/05/16 06:07:23;;;;;;;4.50;1.02;;;;;15.90;101928.00;;;;5089336;28;20206;-81
2023/05/16 06:09:51;;;;;;;4.60;0.93;;;;;16.00;101928.00;;;;5088083;28;20205;-79
2023/05/16 06:12:18;;;;;;;4.53;0.47;;;;;16.10;101937.00;;;;5089487;28;20221;-78
2023/05/16 06:14:45;;;;;;;2.17;0.57;;;;;16.10;101941.00;;;;5088604;28;20195;-78
2023/05/16 06:17:14;;;;;;;1.58;0.40;;;;;16.20;101948.00;;;;5088781;28;20206;-79
2023/05/16 06:19:41;;;;;;;4.22;0.70;;;;;16.20;101949.00;;;;5088336;28;20202;-80
2023/05/16 06:22:08;;;;;;;2.22;0.43;;;;;16.30;101958.00;;;;5087535;28;20198;-79
2023/05/16 06:24:35;;;;;;;2.95;0.50;;;;;16.30;101951.00;;;;5085454;28;20206;-78
2023/05/16 06:27:03;;;;;;;5.20;0.70;;;;;16.40;101957.00;;;;5078583;28;20199;-79
2023/05/16 06:29:30;;;;;;;3.13;0.43;;;;;16.40;101954.00;;;;5068987;28;20195;-79
2023/05/16 06:31:57;;;;;;;2.20;0.50;;;;;16.50;101959.00;;;;5074247;28;20263;-80
2023/05/16 06:34:27;;;;;;;3.05;0.82;;;;;16.50;101956.00;;;;5088785;28;20206;-79
2023/05/16 06:36:56;;;;;;;3.10;0.65;;;;;16.60;101960.00;;;;5087473;28;20575;-79
2023/05/16 06:39:23;;;;;;;1.63;0.60;;;;;16.70;101955.00;;;;5082341;28;20194;-80
2023/05/16 06:41:52;;;;;;;2.53;0.40;;;;;16.70;101957.00;;;;5088731;28;20251;-79
2023/05/16 06:44:19;;;;;;;2.67;0.50;;;;;16.80;101953.00;;;;5089077;28;20202;-79
2023/05/16 06:46:46;;;;;;;2.28;0.85;;;;;16.90;101953.00;;;;5089064;28;20209;-79
2023/05/16 06:49:14;;;;;;;5.63;0.60;;;;;17.00;101948.00;;;;5089210;28;20677;-79
2023/05/16 06:51:42;;;;;;;3.25;0.50;;;;;17.10;101961.00;;;;5088373;28;20229;-80
2023/05/16 06:54:09;;;;;;;3.58;0.75;;;;;17.10;101962.00;;;;5088889;28;20402;-80
2023/05/16 06:56:37;;;;;;;3.33;0.60;;;;;17.20;101955.00;;;;5088661;28;20205;-80
2023/05/16 06:59:04;;;;;;;5.18;0.90;;;;;17.30;101966.00;;;;5088381;28;20202;-78
2023/05/16 07:01:31;;;;;;;4.75;0.50;;;;;17.40;101967.00;;;;5088633;28;20201;-78
2023/05/16 07:03:58;;;;;;;1.73;0.30;;;;;17.50;101964.00;;;;5069224;28;20194;-79
2023/05/16 07:06:26;;;;;;;2.38;0.60;;;;;17.60;101961.00;;;;5080976;28;20194;-78
2023/05/16 07:08:54;;;;;;;2.35;0.50;;;;;17.80;101966.00;;;;5088304;28;20198;-79
2023/05/16 07:11:22;;;;;;;4.18;0.77;;;;;17.90;101965.00;;;;5086813;28;20229;-79
2023/05/16 07:13:49;;;;;;;2.95;0.68;;;;;18.00;101957.00;;;;5088107;28;20209;-79
2023/05/16 07:16:16;;;;;;;2.65;0.75;;;;;18.10;101954.00;;;;5086514;28;20202;-78
2023/05/16 07:18:43;;;;;;;1.60;0.28;;;;;18.20;101963.00;;;;5088655;28;20198;-78
2023/05/16 07:21:11;;;;;;;1.00;0.30;;;;;18.20;101957.00;;;;5087071;28;20563;-79
2023/05/16 07:23:38;;;;;;;2.70;0.40;;;;;18.30;101967.00;;;;5087860;28;20205;-78
2023/05/16 07:26:07;;;;;;;1.75;0.35;;;;;18.40;101964.00;;;;5085845;28;20277;-78
2023/05/16 07:28:34;;;;;;;5.75;0.40;;;;;18.50;101970.00;;;;5085127;28;20690;-79
2023/05/16 07:31:02;;;;;;;1.45;0.30;;;;;18.60;101974.00;;;;5086236;28;20735;-79
2023/05/16 07:33:29;;;;;;;0.73;0.15;;;;;18.70;101973.00;;;;5088051;28;20201;-78
2023/05/16 07:35:56;;;;;;;1.17;0.20;;;;;18.70;101976.00;;;;5087607;28;20199;-79
2023/05/16 07:38:23;;;;;;;1.85;0.32;;;;;18.70;101976.00;;;;5085651;28;20221;-80
2023/05/16 07:40:51;;;;;;;3.15;0.63;;;;;18.70;101977.00;;;;5086609;28;20213;-78
2023/05/16 07:43:19;;;;;;;3.17;0.60;;;;;18.70;101989.00;;;;5085964;28;20202;-80
2023/05/16 07:45:47;;;;;;;1.30;0.65;;;;;18.70;101978.00;;;;5087097;28;20202;-78
2023/05/16 07:48:14;;;;;;;1.63;0.73;;;;;18.60;101977.00;;;;5086653;28;20671;-79
2023/05/16 07:50:42;;;;;;;6.28;0.90;;;;;18.60;101991.00;;;;5087770;28;20198;-79
2023/05/16 07:53:09;;;;;;;3.35;0.93;;;;;18.50;101975.00;;;;5087043;28;20233;-79
2023/05/16 07:55:37;;;;;;;1.55;0.52;;;;;18.60;101972.00;;;;5087998;28;20199;-79
2023/05/16 07:58:05;;;;;;;1.40;0.40;;;;;18.60;101969.00;;;;5086580;28;20194;-79
2023/05/16 08:00:33;;;;;;;1.77;0.30;;;;;18.70;101979.00;;;;5087663;28;20206;-79
2023/05/16 08:03:01;;;;;;;3.30;0.60;;;;;18.80;101974.00;;;;5087592;28;20674;-78
2023/05/16 08:05:28;;;;;;;2.08;0.40;;;;;18.80;101983.00;;;;5087103;28;20206;-78
2023/05/16 08:07:55;;;;;;;1.65;0.60;;;;;18.90;101978.00;;;;5087958;28;20202;-78
2023/05/16 08:10:23;;;;;;;6.43;0.93;;;;;19.00;101986.00;;;;5085863;28;20194;-78
2023/05/16 08:12:52;;;;;;;1.73;0.45;;;;;19.00;101977.00;;;;5087870;28;20642;-78
2023/05/16 08:15:20;;;;;;;2.70;0.57;;;;;19.20;101984.00;;;;5086899;28;20202;-78
2023/05/16 08:17:49;;;;;;;1.45;0.57;;;;;19.20;101975.00;;;;5087818;28;20660;-79
2023/05/16 08:20:16;;;;;;;3.25;0.32;;;;;19.40;101982.00;;;;5086418;28;20202;-79
2023/05/16 08:22:44;;;;;;;2.50;0.22;;;;;19.40;101986.00;;;;5087873;28;20221;-79
2023/05/16 08:25:11;;;;;;;1.45;0.38;;;;;19.50;101992.00;;;;5085768;28;20194;-79
2023/05/16 08:27:38;;;;;;;2.17;0.40;;;;;19.60;101986.00;;;;5087465;28;20209;-78
2023/05/16 08:30:07;;;;;;;3.13;0.63;;;;;19.70;101982.00;;;;5088027;28;20201;-79
2023/05/16 08:32:34;;;;;;;2.05;0.52;;;;;19.80;101986.00;;;;5087538;28;20256;-78
2023/05/16 08:35:03;;;;;;;3.05;0.63;;;;;19.90;101984.00;;;;5086376;28;20285;-78
2023/05/16 08:37:30;;;;;;;3.35;0.35;;;;;20.00;101992.00;;;;5070532;28;20210;-78
2023/05/16 08:39:58;;;;;;;2.05;0.50;;;;;20.10;101993.00;;;;5085838;28;20202;-79
2023/05/16 08:42:26;;;;;;;1.35;0.32;;;;;20.20;101982.00;;;;5087763;28;20653;-79
2023/05/16 08:44:53;;;;;;;3.05;0.38;;;;;20.30;101986.00;;;;5090883;28;20198;-79
2023/05/16 08:47:21;;;;;;;1.63;0.50;;;;;20.50;101978.00;;;;5090007;28;20320;-78
2023/05/16 08:49:51;;;;;;;2.13;0.60;;;;;20.60;101983.00;;;;5088106;28;20202;-78
2023/05/16 08:52:23;;;;;;;2.00;0.40;;;;;20.70;101982.00;;;;5090831;28;20222;-78
2023/05/16 08:54:51;;;;;;;3.55;0.47;;;;;20.90;101976.00;;;;5090725;28;20198;-78
2023/05/16 08:57:19;;;;;;;2.90;0.55;;;;;21.00;101994.00;;;;5090521;28;20664;-78
2023/05/16 08:59:47;;;;;;;1.35;0.30;;;;;21.00;101985.00;;;;5090711;28;20723;-79
2023/05/16 09:02:14;;;;;;;3.05;0.82;;;;;21.00;102000.00;;;;5089783;28;20652;-79
2023/05/16 09:04:43;;;;;;;2.67;0.60;;;;;21.00;102000.00;;;;5089092;28;20199;-78
2023/05/16 09:07:10;;;;;;;4.00;0.30;;;;;21.10;101997.00;;;;5089071;28;20665;-78
2023/05/16 09:09:39;;;;;;;3.60;0.45;;;;;21.20;101988.00;;;;5089979;28;20199;-78
2023/05/16 09:12:07;;;;;;;3.80;0.40;;;;;21.20;101998.00;;;;5090296;28;20222;-79
2023/05/16 09:14:35;;;;;;;5.20;0.82;;;;;21.40;102012.00;;;;5089450;28;20563;-79
2023/05/16 09:17:06;;;;;;;1.33;0.57;;;;;21.40;102003.00;;;;5085890;28;20983;-78
2023/05/16 09:19:38;;;;;;;4.15;0.40;;;;;21.50;101996.00;;;;5082268;28;20202;-79
2023/05/16 09:22:07;;;;;;;0.40;0.25;;;;;21.70;101992.00;;;;5089525;28;20568;-78
2023/05/16 09:24:37;;;;;;;2.40;0.55;;;;;21.90;102004.00;;;;5090790;28;20206;-80
2023/05/16 09:27:10;;;;;;;1.95;0.60;;;;;21.90;101994.00;;;;5088005;28;20206;-79
2023/05/16 09:29:39;;;;;;;2.22;0.50;;;;;22.00;102005.00;;;;5089487;28;20202;-79
2023/05/16 09:32:12;;;;;;;1.27;0.40;;;;;22.00;102005.00;;;;5089777;28;20655;-80
2023/05/16 09:34:42;;;;;;;3.08;0.50;;;;;22.00;102007.00;;;;5089876;28;20202;-79
2023/05/16 09:37:11;;;;;;;2.03;0.93;;;;;21.90;102009.00;;;;5089334;28;20575;-80
2023/05/16 09:39:40;;;;;;;1.13;0.40;;;;;21.80;102008.00;;;;5090549;28;21064;-79
2023/05/16 09:42:13;;;;;;;2.03;0.32;;;;;21.60;102011.00;;;;5089436;28;20271;-79
2023/05/16 09:44:40;;;;;;;1.85;0.52;;;;;21.50;102018.00;;;;5088108;28;20198;-79
2023/05/16 09:47:07;;;;;;;1.30;0.20;;;;;21.50;102015.00;;;;5088861;28;20202;-78
2023/05/16 09:49:37;;;;;;;3.65;0.77;;;;;21.40;102014.00;;;;5089069;28;20594;-79
2023/05/16 09:52:05;;;;;;;2.90;0.80;;;;;21.50;102012.00;;;;5096237;28;20226;-78
2023/05/16 09:54:33;;;;;;;3.45;0.50;;;;;21.50;102009.00;;;;5110429;28;20201;-79
2023/05/16 09:57:01;;;;;;;1.95;0.20;;;;;21.60;102015.00;;;;5093813;28;20210;-79
2023/05/16 09:59:30;;;;;;;1.48;0.28;;;;;21.50;102014.00;;;;5089899;28;20214;-80
2023/05/16 10:01:59;;;;;;;2.35;0.55;;;;;21.50;102009.00;;;;5090359;28;20209;-78
2023/05/16 10:04:26;;;;;;;1.15;0.45;;;;;21.40;102004.00;;;;5089558;28;20259;-79
2023/05/16 10:06:56;;;;;;;0.40;0.20;;;;;21.40;102008.00;;;;5088630;28;20198;-79
2023/05/16 10:09:24;;;;;;;0.90;0.30;;;;;21.40;102011.00;;;;5090112;28;20267;-78
2023/05/16 10:11:53;;;;;;;1.30;0.60;;;;;21.50;102013.00;;;;5088935;28;20205;-78
2023/05/16 10:14:22;;;;;;;1.60;0.35;;;;;21.40;102010.00;;;;5089991;28;20194;-79
2023/05/16 10:16:52;;;;;;;2.65;0.55;;;;;21.30;102008.00;;;;5089339;28;20209;-79
2023/05/16 10:19:22;;;;;;;4.05;0.52;;;;;21.30;102024.00;;;;5077809;28;20696;-79
2023/05/16 10:21:53;;;;;;;1.30;0.25;;;;;21.20;102019.00;;;;5089040;28;20201;-79
2023/05/16 10:24:26;;;;;;;1.20;0.32;;;;;21.10;102015.00;;;;5090055;28;20583;-79
2023/05/16 10:26:54;;;;;;;2.00;0.30;;;;;21.10;102011.00;;;;5090648;28;20730;-79
2023/05/16 10:29:22;;;;;;;2.97;0.77;;;;;21.10;102011.00;;;;5080525;28;20199;-79
2023/05/16 10:31:51;;;;;;;2.58;0.88;;;;;21.20;102014.00;;;;5076452;28;20244;-80
2023/05/16 10:34:19;;;;;;;1.48;0.30;;;;;21.30;102005.00;;;;5089390;28;20202;-79
2023/05/16 10:36:47;;;;;;;1.75;0.65;;;;;21.30;102011.00;;;;5088768;28;20198;-79
2023/05/16 10:39:15;;;;;;;1.35;0.40;;;;;21.30;102009.00;;;;5088064;28;21036;-79
2023/05/16 10:41:43;;;;;;;2.20;0.30;;;;;21.30;102008.00;;;;5088669;28;20302;-79
2023/05/16 10:44:15;;;;;;;3.17;0.45;;;;;21.20;102009.00;;;;5089195;28;20202;-79
2023/05/16 10:46:43;;;;;;;2.65;0.50;;;;;21.30;102011.00;;;;5087918;28;20255;-79
2023/05/16 10:49:30;;;;;;;3.42;0.43;;;;;21.10;102013.00;;;;5087773;28;20198;-79
2023/05/16 10:52:06;;;;;;;2.70;0.50;;;;;21.20;102016.00;;;;5088350;28;20198;-79
2023/05/16 10:54:38;;;;;;;1.85;0.50;;;;;21.20;102018.00;;;;5089379;28;20204;-79
2023/05/16 10:57:08;;;;;;;1.40;0.40;;;;;21.20;102014.00;;;;5088513;28;20229;-78
2023/05/16 10:59:43;;;;;;;2.60;0.35;;;;;21.10;102003.00;;;;5089405;28;20198;-79
2023/05/16 11:02:31;;;;;;;1.80;0.30;;;;;20.90;102007.00;;;;5088402;28;20198;-79
2023/05/16 11:05:01;;;;;;;3.25;0.68;;;;;21.00;102010.00;;;;5088873;28;20195;-79
2023/05/16 11:07:33;;;;;;;0.57;0.30;;;;;20.90;102013.00;;;;5086797;28;20202;-78
2023/05/16 11:10:08;;;;;;;2.28;0.32;;;;;20.90;102009.00;;;;5088839;28;20601;-78
2023/05/16 11:12:45;;;;;;;3.25;0.57;;;;;20.90;102006.00;;;;5068999;28;20229;-78
2023/05/16 11:15:23;;;;;;;1.92;0.70;;;;;20.90;101999.00;;;;5077554;28;20201;-80
2023/05/16 11:17:51;;;;;;;0.80;0.43;;;;;21.10;102011.00;;;;5089561;28;20205;-78
2023/05/16 11:20:33;;;;;;;3.67;0.80;;;;;21.00;102007.00;;;;5085233;28;20667;-80
2023/05/16 11:23:18;;;;;;;2.08;0.40;;;;;21.00;102011.00;;;;5085209;28;20251;-79
2023/05/16 11:25:48;;;;;;;1.58;0.35;;;;;21.00;102011.00;;;;5086643;28;20210;-80
2023/05/16 11:28:15;;;;;;;3.38;0.50;;;;;21.00;102015.00;;;;5088348;28;20202;-80
2023/05/16 11:30:45;;;;;;;0.65;0.40;;;;;21.00;102022.00;;;;5087955;28;20230;-79
2023/05/16 11:33:13;;;;;;;1.15;0.60;;;;;21.00;102023.00;;;;5088374;28;20232;-78
2023/05/16 11:35:42;;;;;;;1.42;0.47;;;;;20.90;102022.00;;;;5088210;28;20205;-77
2023/05/16 11:38:15;;;;;;;2.45;0.32;;;;;20.90;102024.00;;;;5085348;28;20686;-77
2023/05/16 11:40:44;;;;;;;2.88;0.57;;;;;20.90;102024.00;;;;5087317;28;20697;-78
2023/05/16 11:43:12;;;;;;;2.40;0.28;;;;;20.80;102018.00;;;;5087132;28;20259;-77
2023/05/16 11:45:39;;;;;;;1.25;0.35;;;;;20.80;102029.00;;;;5087057;28;20210;-79
2023/05/16 11:48:07;;;;;;;2.92;0.32;;;;;20.80;102029.00;;;;5088280;28;20710;-79
2023/05/16 11:50:35;;;;;;;1.20;0.40;;;;;20.80;102032.00;;;;5086955;28;20572;-77
2023/05/16 11:53:03;;;;;;;1.83;0.50;;;;;20.80;102030.00;;;;5087783;28;20232;-78
2023/05/16 11:55:33;;;;;;;1.92;0.52;;;;;20.80;102032.00;;;;5088491;28;20197;-80
2023/05/16 11:58:01;;;;;;;0.93;0.30;;;;;20.80;102038.00;;;;5087985;28;20198;-79
2023/05/16 12:00:28;;;;;;;1.60;0.57;;;;;20.80;102028.00;;;;5088202;28;20230;-79
2023/05/16 12:03:01;;;;;;;3.55;0.50;;;;;20.80;102033.00;;;;5088340;28;20206;-79
2023/05/16 12:05:30;;;;;;;0.80;0.40;;;;;20.70;102034.00;;;;5087895;28;20202;-79
2023/05/16 12:07:58;;;;;;;1.67;0.30;;;;;20.60;102039.00;;;;5086424;28;20226;-78
2023/05/16 12:10:27;;;;;;;2.35;0.70;;;;;20.60;102035.00;;;;5087909;28;20197;-78
2023/05/16 12:12:55;;;;;;;1.90;0.65;;;;;20.50;102034.00;;;;5088186;28;20594;-79
2023/05/16 12:15:23;;;;;;;0.75;0.20;;;;;20.60;102036.00;;;;5088334;28;20209;-78